sensor_id;sensor_type;location;lat;lon;timestamp;P1;durP1;ratioP1;P2;durP2;ratioP2
22320;SDS011;11328;53.928;18.522;2023-07-13T00:02:22;10.95;;;6.60;;
22320;SDS011;11328;53.928;18.522;2023-07-13T00:04:50;13.40;;;6.50;;
22320;SDS011;11328;53.928;18.522;2023-07-13T00:07:18;12.35;;;6.20;;
22320;SDS011;11328;53.928;18.522;2023-07-13T00:09:50;13.93;;;6.63;;
22320;SDS011;11328;53.928;18.522;2023-07-13T00:12:22;15.75;;;6.53;;
22320;SDS011;11328;53.928;18.522;2023-07-13T00:15:00;15.32;;;6.05;;
22320;SDS011;11328;53.928;18.522;2023-07-13T00:17:31;11.18;;;6.22;;
22320;SDS011;11328;53.928;18.522;2023-07-13T00:19:59;15.55;;;6.10;;
22320;SDS011;11328;53.928;18.522;2023-07-13T00:22:26;10.93;;;5.28;;
22320;SDS011;11328;53.928;18.522;2023-07-13T00:24:53;10.02;;;5.20;;
22320;SDS011;11328;53.928;18.522;2023-07-13T00:27:23;13.25;;;4.90;;
22320;SDS011;11328;53.928;18.522;2023-07-13T00:29:52;11.48;;;5.85;;
22320;SDS011;11328;53.928;18.522;2023-07-13T00:32:20;15.60;;;7.13;;
22320;SDS011;11328;53.928;18.522;2023-07-13T00:34:47;15.10;;;8.07;;
22320;SDS011;11328;53.928;18.522;2023-07-13T00:37:14;12.35;;;6.50;;
22320;SDS011;11328;53.928;18.522;2023-07-13T00:39:41;14.60;;;5.90;;
22320;SDS011;11328;53.928;18.522;2023-07-13T00:42:08;11.13;;;6.53;;
22320;SDS011;11328;53.928;18.522;2023-07-13T00:44:36;13.40;;;6.45;;
22320;SDS011;11328;53.928;18.522;2023-07-13T00:47:03;15.10;;;6.53;;
22320;SDS011;11328;53.928;18.522;2023-07-13T00:49:30;11.35;;;6.32;;
22320;SDS011;11328;53.928;18.522;2023-07-13T00:52:02;13.80;;;6.38;;
22320;SDS011;11328;53.928;18.522;2023-07-13T00:54:37;11.23;;;5.55;;
22320;SDS011;11328;53.928;18.522;2023-07-13T00:57:14;9.77;;;5.32;;
22320;SDS011;11328;53.928;18.522;2023-07-13T00:59:49;11.75;;;6.03;;
22320;SDS011;11328;53.928;18.522;2023-07-13T01:02:22;12.10;;;5.80;;
22320;SDS011;11328;53.928;18.522;2023-07-13T01:04:50;14.65;;;6.22;;
22320;SDS011;11328;53.928;18.522;2023-07-13T01:07:17;17.58;;;7.47;;
22320;SDS011;11328;53.928;18.522;2023-07-13T01:09:45;15.50;;;6.93;;
22320;SDS011;11328;53.928;18.522;2023-07-13T01:12:12;16.63;;;6.55;;
22320;SDS011;11328;53.928;18.522;2023-07-13T01:14:40;19.90;;;6.05;;
22320;SDS011;11328;53.928;18.522;2023-07-13T01:17:10;14.57;;;6.30;;
22320;SDS011;11328;53.928;18.522;2023-07-13T01:19:39;22.42;;;6.80;;
22320;SDS011;11328;53.928;18.522;2023-07-13T01:22:13;16.70;;;6.65;;
22320;SDS011;11328;53.928;18.522;2023-07-13T01:24:44;17.63;;;8.23;;
22320;SDS011;11328;53.928;18.522;2023-07-13T01:27:15;14.68;;;8.35;;
22320;SDS011;11328;53.928;18.522;2023-07-13T01:29:46;14.63;;;8.30;;
22320;SDS011;11328;53.928;18.522;2023-07-13T01:32:15;12.75;;;6.60;;
22320;SDS011;11328;53.928;18.522;2023-07-13T01:34:51;13.60;;;6.20;;
22320;SDS011;11328;53.928;18.522;2023-07-13T01:37:23;11.52;;;6.13;;
22320;SDS011;11328;53.928;18.522;2023-07-13T01:39:53;14.30;;;6.15;;
22320;SDS011;11328;53.928;18.522;2023-07-13T01:42:20;13.40;;;5.45;;
22320;SDS011;11328;53.928;18.522;2023-07-13T01:44:47;13.93;;;6.30;;
22320;SDS011;11328;53.928;18.522;2023-07-13T01:47:14;11.88;;;5.82;;
22320;SDS011;11328;53.928;18.522;2023-07-13T01:49:41;11.65;;;5.97;;
22320;SDS011;11328;53.928;18.522;2023-07-13T01:52:08;12.80;;;5.63;;
22320;SDS011;11328;53.928;18.522;2023-07-13T01:54:35;13.38;;;5.93;;
22320;SDS011;11328;53.928;18.522;2023-07-13T01:57:02;10.50;;;5.97;;
22320;SDS011;11328;53.928;18.522;2023-07-13T01:59:30;12.00;;;6.38;;
22320;SDS011;11328;53.928;18.522;2023-07-13T02:01:57;11.32;;;5.57;;
22320;SDS011;11328;53.928;18.522;2023-07-13T02:04:24;12.50;;;6.32;;
22320;SDS011;11328;53.928;18.522;2023-07-13T02:06:51;12.48;;;6.03;;
22320;SDS011;11328;53.928;18.522;2023-07-13T02:09:18;12.38;;;6.22;;
22320;SDS011;11328;53.928;18.522;2023-07-13T02:11:45;12.35;;;6.57;;
22320;SDS011;11328;53.928;18.522;2023-07-13T02:14:12;15.32;;;6.60;;
22320;SDS011;11328;53.928;18.522;2023-07-13T02:16:44;17.70;;;8.27;;
22320;SDS011;11328;53.928;18.522;2023-07-13T02:19:11;15.23;;;7.88;;
22320;SDS011;11328;53.928;18.522;2023-07-13T02:21:38;12.73;;;6.65;;
22320;SDS011;11328;53.928;18.522;2023-07-13T02:24:05;13.10;;;7.25;;
22320;SDS011;11328;53.928;18.522;2023-07-13T02:26:33;12.85;;;6.53;;
22320;SDS011;11328;53.928;18.522;2023-07-13T02:29:01;15.80;;;7.07;;
22320;SDS011;11328;53.928;18.522;2023-07-13T02:31:28;18.40;;;7.43;;
22320;SDS011;11328;53.928;18.522;2023-07-13T02:33:55;16.08;;;7.03;;
22320;SDS011;11328;53.928;18.522;2023-07-13T02:36:22;17.63;;;8.38;;
22320;SDS011;11328;53.928;18.522;2023-07-13T02:38:49;15.65;;;7.75;;
22320;SDS011;11328;53.928;18.522;2023-07-13T02:41:17;15.18;;;7.13;;
22320;SDS011;11328;53.928;18.522;2023-07-13T02:43:44;18.73;;;7.10;;
22320;SDS011;11328;53.928;18.522;2023-07-13T02:46:11;14.13;;;7.68;;
22320;SDS011;11328;53.928;18.522;2023-07-13T02:48:38;13.95;;;7.18;;
22320;SDS011;11328;53.928;18.522;2023-07-13T02:51:06;13.65;;;6.72;;
22320;SDS011;11328;53.928;18.522;2023-07-13T02:53:34;17.52;;;8.52;;
22320;SDS011;11328;53.928;18.522;2023-07-13T02:56:02;20.42;;;8.60;;
22320;SDS011;11328;53.928;18.522;2023-07-13T02:58:31;17.55;;;7.50;;
22320;SDS011;11328;53.928;18.522;2023-07-13T03:00:59;16.02;;;6.82;;
22320;SDS011;11328;53.928;18.522;2023-07-13T03:03:33;14.35;;;6.78;;
22320;SDS011;11328;53.928;18.522;2023-07-13T03:06:01;15.18;;;6.65;;
22320;SDS011;11328;53.928;18.522;2023-07-13T03:08:31;19.02;;;7.15;;
22320;SDS011;11328;53.928;18.522;2023-07-13T03:11:02;16.23;;;6.97;;
22320;SDS011;11328;53.928;18.522;2023-07-13T03:13:33;16.35;;;6.90;;
22320;SDS011;11328;53.928;18.522;2023-07-13T03:16:01;15.68;;;6.78;;
22320;SDS011;11328;53.928;18.522;2023-07-13T03:18:28;13.93;;;6.00;;
22320;SDS011;11328;53.928;18.522;2023-07-13T03:20:56;15.77;;;6.68;;
22320;SDS011;11328;53.928;18.522;2023-07-13T03:23:23;13.50;;;6.45;;
22320;SDS011;11328;53.928;18.522;2023-07-13T03:26:00;12.98;;;6.30;;
22320;SDS011;11328;53.928;18.522;2023-07-13T03:28:37;15.05;;;7.25;;
22320;SDS011;11328;53.928;18.522;2023-07-13T03:31:08;14.38;;;7.30;;
22320;SDS011;11328;53.928;18.522;2023-07-13T03:33:40;11.85;;;7.15;;
22320;SDS011;11328;53.928;18.522;2023-07-13T03:36:09;17.65;;;7.72;;
22320;SDS011;11328;53.928;18.522;2023-07-13T03:38:42;18.77;;;7.97;;
22320;SDS011;11328;53.928;18.522;2023-07-13T03:41:09;23.38;;;8.85;;
22320;SDS011;11328;53.928;18.522;2023-07-13T03:43:36;18.42;;;9.55;;
22320;SDS011;11328;53.928;18.522;2023-07-13T03:46:03;20.38;;;10.05;;
22320;SDS011;11328;53.928;18.522;2023-07-13T03:48:30;17.70;;;9.23;;
22320;SDS011;11328;53.928;18.522;2023-07-13T03:50:57;21.15;;;9.50;;
22320;SDS011;11328;53.928;18.522;2023-07-13T03:53:25;19.55;;;8.57;;
22320;SDS011;11328;53.928;18.522;2023-07-13T03:55:52;17.98;;;8.27;;
22320;SDS011;11328;53.928;18.522;2023-07-13T03:58:24;16.48;;;7.20;;
22320;SDS011;11328;53.928;18.522;2023-07-13T04:01:01;13.13;;;6.85;;
22320;SDS011;11328;53.928;18.522;2023-07-13T04:07:40;18.13;;;7.93;;
22320;SDS011;11328;53.928;18.522;2023-07-13T04:10:07;19.05;;;7.32;;
22320;SDS011;11328;53.928;18.522;2023-07-13T04:12:35;17.33;;;7.82;;
22320;SDS011;11328;53.928;18.522;2023-07-13T04:15:03;17.20;;;7.72;;
22320;SDS011;11328;53.928;18.522;2023-07-13T04:17:30;20.20;;;8.85;;
22320;SDS011;11328;53.928;18.522;2023-07-13T04:19:58;19.23;;;8.88;;
22320;SDS011;11328;53.928;18.522;2023-07-13T04:22:25;19.13;;;7.75;;
22320;SDS011;11328;53.928;18.522;2023-07-13T04:24:52;16.65;;;7.63;;
22320;SDS011;11328;53.928;18.522;2023-07-13T04:27:19;17.50;;;7.32;;
22320;SDS011;11328;53.928;18.522;2023-07-13T04:29:50;14.27;;;7.40;;
22320;SDS011;11328;53.928;18.522;2023-07-13T04:32:18;16.27;;;7.22;;
22320;SDS011;11328;53.928;18.522;2023-07-13T04:34:45;11.35;;;6.22;;
22320;SDS011;11328;53.928;18.522;2023-07-13T04:37:12;17.30;;;6.47;;
22320;SDS011;11328;53.928;18.522;2023-07-13T04:39:39;15.75;;;6.28;;
22320;SDS011;11328;53.928;18.522;2023-07-13T04:42:06;13.35;;;5.68;;
22320;SDS011;11328;53.928;18.522;2023-07-13T04:44:33;14.93;;;6.35;;
22320;SDS011;11328;53.928;18.522;2023-07-13T04:47:00;13.40;;;5.97;;
22320;SDS011;11328;53.928;18.522;2023-07-13T04:49:27;14.80;;;5.88;;
22320;SDS011;11328;53.928;18.522;2023-07-13T04:51:54;13.50;;;5.20;;
22320;SDS011;11328;53.928;18.522;2023-07-13T04:54:22;17.63;;;5.80;;
22320;SDS011;11328;53.928;18.522;2023-07-13T04:56:49;12.95;;;5.75;;
22320;SDS011;11328;53.928;18.522;2023-07-13T04:59:16;12.45;;;5.72;;
22320;SDS011;11328;53.928;18.522;2023-07-13T05:01:43;15.82;;;5.85;;
22320;SDS011;11328;53.928;18.522;2023-07-13T05:04:10;12.63;;;4.75;;
22320;SDS011;11328;53.928;18.522;2023-07-13T05:06:37;13.88;;;5.13;;
22320;SDS011;11328;53.928;18.522;2023-07-13T05:09:04;17.00;;;5.50;;
22320;SDS011;11328;53.928;18.522;2023-07-13T05:11:33;12.45;;;4.63;;
22320;SDS011;11328;53.928;18.522;2023-07-13T05:14:01;14.07;;;4.53;;
22320;SDS011;11328;53.928;18.522;2023-07-13T05:16:28;11.60;;;4.78;;
22320;SDS011;11328;53.928;18.522;2023-07-13T05:18:55;12.82;;;4.75;;
22320;SDS011;11328;53.928;18.522;2023-07-13T05:21:22;17.10;;;4.88;;
22320;SDS011;11328;53.928;18.522;2023-07-13T05:23:50;18.23;;;5.85;;
22320;SDS011;11328;53.928;18.522;2023-07-13T05:26:17;12.77;;;4.40;;
22320;SDS011;11328;53.928;18.522;2023-07-13T05:28:45;16.10;;;4.50;;
22320;SDS011;11328;53.928;18.522;2023-07-13T05:31:13;11.18;;;4.20;;
22320;SDS011;11328;53.928;18.522;2023-07-13T05:33:40;14.77;;;4.32;;
22320;SDS011;11328;53.928;18.522;2023-07-13T05:36:08;11.77;;;4.05;;
22320;SDS011;11328;53.928;18.522;2023-07-13T05:38:35;11.40;;;4.20;;
22320;SDS011;11328;53.928;18.522;2023-07-13T05:41:02;11.80;;;3.55;;
22320;SDS011;11328;53.928;18.522;2023-07-13T05:43:31;9.27;;;3.60;;
22320;SDS011;11328;53.928;18.522;2023-07-13T05:45:59;11.68;;;3.60;;
22320;SDS011;11328;53.928;18.522;2023-07-13T05:48:26;13.45;;;3.90;;
22320;SDS011;11328;53.928;18.522;2023-07-13T05:50:53;11.05;;;3.72;;
22320;SDS011;11328;53.928;18.522;2023-07-13T05:53:20;13.25;;;4.00;;
22320;SDS011;11328;53.928;18.522;2023-07-13T05:55:48;13.32;;;3.83;;
22320;SDS011;11328;53.928;18.522;2023-07-13T05:58:16;13.95;;;3.90;;
22320;SDS011;11328;53.928;18.522;2023-07-13T06:00:44;13.25;;;3.55;;
22320;SDS011;11328;53.928;18.522;2023-07-13T06:03:13;13.88;;;3.67;;
22320;SDS011;11328;53.928;18.522;2023-07-13T06:05:41;13.23;;;3.28;;
22320;SDS011;11328;53.928;18.522;2023-07-13T06:08:08;8.77;;;3.20;;
22320;SDS011;11328;53.928;18.522;2023-07-13T06:10:35;8.93;;;2.67;;
22320;SDS011;11328;53.928;18.522;2023-07-13T06:13:03;12.27;;;4.22;;
22320;SDS011;11328;53.928;18.522;2023-07-13T06:15:30;11.00;;;3.50;;
22320;SDS011;11328;53.928;18.522;2023-07-13T06:17:57;10.48;;;2.83;;
22320;SDS011;11328;53.928;18.522;2023-07-13T06:20:25;10.60;;;3.08;;
22320;SDS011;11328;53.928;18.522;2023-07-13T06:22:52;11.05;;;2.97;;
22320;SDS011;11328;53.928;18.522;2023-07-13T06:25:20;9.85;;;3.00;;
22320;SDS011;11328;53.928;18.522;2023-07-13T06:27:47;9.23;;;3.00;;
22320;SDS011;11328;53.928;18.522;2023-07-13T06:30:14;10.77;;;2.78;;
22320;SDS011;11328;53.928;18.522;2023-07-13T06:32:41;11.25;;;3.42;;
22320;SDS011;11328;53.928;18.522;2023-07-13T06:35:08;10.52;;;2.60;;
22320;SDS011;11328;53.928;18.522;2023-07-13T06:37:39;7.93;;;2.30;;
22320;SDS011;11328;53.928;18.522;2023-07-13T06:40:06;10.65;;;2.70;;
22320;SDS011;11328;53.928;18.522;2023-07-13T06:42:34;9.38;;;2.63;;
22320;SDS011;11328;53.928;18.522;2023-07-13T06:45:01;6.93;;;2.45;;
22320;SDS011;11328;53.928;18.522;2023-07-13T06:47:29;9.27;;;2.35;;
22320;SDS011;11328;53.928;18.522;2023-07-13T06:49:59;9.63;;;2.40;;
22320;SDS011;11328;53.928;18.522;2023-07-13T06:52:27;9.18;;;2.72;;
22320;SDS011;11328;53.928;18.522;2023-07-13T06:54:54;10.43;;;2.58;;
22320;SDS011;11328;53.928;18.522;2023-07-13T06:57:21;10.07;;;2.70;;
22320;SDS011;11328;53.928;18.522;2023-07-13T06:59:49;11.55;;;2.35;;
22320;SDS011;11328;53.928;18.522;2023-07-13T07:02:16;6.93;;;2.20;;
22320;SDS011;11328;53.928;18.522;2023-07-13T07:04:43;6.95;;;2.42;;
22320;SDS011;11328;53.928;18.522;2023-07-13T07:07:10;7.07;;;2.22;;
22320;SDS011;11328;53.928;18.522;2023-07-13T07:09:37;7.88;;;2.35;;
22320;SDS011;11328;53.928;18.522;2023-07-13T07:12:04;8.32;;;2.75;;
22320;SDS011;11328;53.928;18.522;2023-07-13T07:14:32;7.20;;;2.40;;
22320;SDS011;11328;53.928;18.522;2023-07-13T07:17:00;5.75;;;1.98;;
22320;SDS011;11328;53.928;18.522;2023-07-13T07:19:29;9.30;;;2.42;;
22320;SDS011;11328;53.928;18.522;2023-07-13T07:21:57;9.43;;;2.40;;
22320;SDS011;11328;53.928;18.522;2023-07-13T07:24:24;8.15;;;2.17;;
22320;SDS011;11328;53.928;18.522;2023-07-13T07:26:52;8.65;;;2.28;;
22320;SDS011;11328;53.928;18.522;2023-07-13T07:29:22;7.95;;;1.95;;
22320;SDS011;11328;53.928;18.522;2023-07-13T07:31:54;7.23;;;2.10;;
22320;SDS011;11328;53.928;18.522;2023-07-13T07:34:24;8.75;;;2.40;;
22320;SDS011;11328;53.928;18.522;2023-07-13T07:36:51;9.18;;;2.22;;
22320;SDS011;11328;53.928;18.522;2023-07-13T07:39:23;7.38;;;1.70;;
22320;SDS011;11328;53.928;18.522;2023-07-13T07:41:50;7.18;;;2.45;;
22320;SDS011;11328;53.928;18.522;2023-07-13T07:44:20;9.45;;;2.47;;
22320;SDS011;11328;53.928;18.522;2023-07-13T07:46:47;10.95;;;2.72;;
22320;SDS011;11328;53.928;18.522;2023-07-13T07:49:15;5.88;;;2.10;;
22320;SDS011;11328;53.928;18.522;2023-07-13T07:51:42;6.95;;;2.05;;
22320;SDS011;11328;53.928;18.522;2023-07-13T07:54:09;10.52;;;2.20;;
22320;SDS011;11328;53.928;18.522;2023-07-13T07:56:42;8.95;;;2.33;;
22320;SDS011;11328;53.928;18.522;2023-07-13T07:59:12;8.68;;;2.30;;
22320;SDS011;11328;53.928;18.522;2023-07-13T08:01:42;6.75;;;1.83;;
22320;SDS011;11328;53.928;18.522;2023-07-13T08:04:14;5.73;;;2.17;;
22320;SDS011;11328;53.928;18.522;2023-07-13T08:07:02;7.95;;;2.78;;
22320;SDS011;11328;53.928;18.522;2023-07-13T08:09:29;10.13;;;2.80;;
22320;SDS011;11328;53.928;18.522;2023-07-13T08:11:56;10.63;;;2.50;;
22320;SDS011;11328;53.928;18.522;2023-07-13T08:14:26;4.00;;;1.60;;
22320;SDS011;11328;53.928;18.522;2023-07-13T08:17:12;4.30;;;1.63;;
22320;SDS011;11328;53.928;18.522;2023-07-13T08:19:39;8.18;;;2.63;;
22320;SDS011;11328;53.928;18.522;2023-07-13T08:22:06;7.03;;;2.28;;
22320;SDS011;11328;53.928;18.522;2023-07-13T08:24:33;9.07;;;2.50;;
22320;SDS011;11328;53.928;18.522;2023-07-13T08:27:00;7.22;;;2.13;;
22320;SDS011;11328;53.928;18.522;2023-07-13T08:29:28;9.85;;;2.10;;
22320;SDS011;11328;53.928;18.522;2023-07-13T08:31:58;7.95;;;2.13;;
22320;SDS011;11328;53.928;18.522;2023-07-13T08:34:25;6.93;;;1.95;;
22320;SDS011;11328;53.928;18.522;2023-07-13T08:36:52;8.75;;;2.45;;
22320;SDS011;11328;53.928;18.522;2023-07-13T08:39:19;5.47;;;2.00;;
22320;SDS011;11328;53.928;18.522;2023-07-13T08:41:47;4.90;;;1.88;;
22320;SDS011;11328;53.928;18.522;2023-07-13T08:44:35;7.65;;;2.10;;
22320;SDS011;11328;53.928;18.522;2023-07-13T08:47:14;6.85;;;2.15;;
22320;SDS011;11328;53.928;18.522;2023-07-13T08:52:16;7.53;;;1.90;;
22320;SDS011;11328;53.928;18.522;2023-07-13T08:55:13;6.23;;;2.10;;
22320;SDS011;11328;53.928;18.522;2023-07-13T08:58:02;8.77;;;2.10;;
22320;SDS011;11328;53.928;18.522;2023-07-13T09:00:45;6.53;;;2.08;;
22320;SDS011;11328;53.928;18.522;2023-07-13T09:03:46;6.97;;;1.98;;
22320;SDS011;11328;53.928;18.522;2023-07-13T09:06:31;7.53;;;2.05;;
22320;SDS011;11328;53.928;18.522;2023-07-13T09:15:35;7.85;;;2.10;;
22320;SDS011;11328;53.928;18.522;2023-07-13T09:21:11;7.80;;;2.03;;
22320;SDS011;11328;53.928;18.522;2023-07-13T09:24:03;7.47;;;1.80;;
22320;SDS011;11328;53.928;18.522;2023-07-13T09:26:53;6.67;;;2.10;;
22320;SDS011;11328;53.928;18.522;2023-07-13T09:29:30;6.63;;;1.80;;
22320;SDS011;11328;53.928;18.522;2023-07-13T09:32:04;5.95;;;1.83;;
22320;SDS011;11328;53.928;18.522;2023-07-13T09:34:36;6.22;;;1.75;;
22320;SDS011;11328;53.928;18.522;2023-07-13T09:37:06;14.43;;;2.10;;
22320;SDS011;11328;53.928;18.522;2023-07-13T09:39:33;8.30;;;1.80;;
22320;SDS011;11328;53.928;18.522;2023-07-13T09:44:55;9.45;;;2.20;;
22320;SDS011;11328;53.928;18.522;2023-07-13T09:47:33;8.30;;;2.53;;
22320;SDS011;11328;53.928;18.522;2023-07-13T09:50:09;8.45;;;2.10;;
22320;SDS011;11328;53.928;18.522;2023-07-13T09:52:46;8.20;;;1.83;;
22320;SDS011;11328;53.928;18.522;2023-07-13T09:55:37;7.40;;;1.63;;
22320;SDS011;11328;53.928;18.522;2023-07-13T09:58:12;6.07;;;2.15;;
22320;SDS011;11328;53.928;18.522;2023-07-13T10:00:43;8.57;;;2.10;;
22320;SDS011;11328;53.928;18.522;2023-07-13T10:03:35;7.40;;;2.00;;
22320;SDS011;11328;53.928;18.522;2023-07-13T10:06:14;5.68;;;1.98;;
22320;SDS011;11328;53.928;18.522;2023-07-13T10:08:45;5.05;;;1.90;;
22320;SDS011;11328;53.928;18.522;2023-07-13T10:11:17;5.78;;;1.80;;
22320;SDS011;11328;53.928;18.522;2023-07-13T10:13:54;5.55;;;1.75;;
22320;SDS011;11328;53.928;18.522;2023-07-13T10:16:28;7.00;;;1.98;;
22320;SDS011;11328;53.928;18.522;2023-07-13T10:19:10;5.45;;;2.00;;
22320;SDS011;11328;53.928;18.522;2023-07-13T10:21:53;7.53;;;2.50;;
22320;SDS011;11328;53.928;18.522;2023-07-13T10:24:26;7.82;;;1.80;;
22320;SDS011;11328;53.928;18.522;2023-07-13T10:27:19;4.68;;;1.65;;
22320;SDS011;11328;53.928;18.522;2023-07-13T10:32:46;8.13;;;2.30;;
22320;SDS011;11328;53.928;18.522;2023-07-13T10:35:15;5.97;;;1.70;;
22320;SDS011;11328;53.928;18.522;2023-07-13T10:40:39;6.97;;;1.63;;
22320;SDS011;11328;53.928;18.522;2023-07-13T10:43:31;6.53;;;1.98;;
22320;SDS011;11328;53.928;18.522;2023-07-13T10:46:06;6.28;;;1.98;;
22320;SDS011;11328;53.928;18.522;2023-07-13T10:48:41;9.43;;;2.10;;
22320;SDS011;11328;53.928;18.522;2023-07-13T10:51:14;9.13;;;1.92;;
22320;SDS011;11328;53.928;18.522;2023-07-13T10:53:44;7.53;;;1.80;;
22320;SDS011;11328;53.928;18.522;2023-07-13T10:59:05;8.48;;;2.08;;
22320;SDS011;11328;53.928;18.522;2023-07-13T11:04:44;6.90;;;2.03;;
22320;SDS011;11328;53.928;18.522;2023-07-13T11:07:19;7.25;;;2.45;;
22320;SDS011;11328;53.928;18.522;2023-07-13T11:09:57;7.10;;;1.73;;
22320;SDS011;11328;53.928;18.522;2023-07-13T11:12:52;9.35;;;2.03;;
22320;SDS011;11328;53.928;18.522;2023-07-13T11:15:28;8.32;;;2.10;;
22320;SDS011;11328;53.928;18.522;2023-07-13T11:18:20;5.18;;;1.92;;
22320;SDS011;11328;53.928;18.522;2023-07-13T11:20:51;6.72;;;2.00;;
22320;SDS011;11328;53.928;18.522;2023-07-13T11:24:14;5.82;;;1.92;;
22320;SDS011;11328;53.928;18.522;2023-07-13T11:31:58;8.45;;;2.20;;
22320;SDS011;11328;53.928;18.522;2023-07-13T11:34:47;5.63;;;1.88;;
22320;SDS011;11328;53.928;18.522;2023-07-13T11:37:16;5.97;;;1.98;;
22320;SDS011;11328;53.928;18.522;2023-07-13T11:39:46;7.03;;;1.88;;
22320;SDS011;11328;53.928;18.522;2023-07-13T11:42:21;5.20;;;2.05;;
22320;SDS011;11328;53.928;18.522;2023-07-13T11:44:49;7.40;;;2.00;;
22320;SDS011;11328;53.928;18.522;2023-07-13T11:47:39;8.18;;;2.08;;
22320;SDS011;11328;53.928;18.522;2023-07-13T11:50:17;7.03;;;1.90;;
22320;SDS011;11328;53.928;18.522;2023-07-13T11:52:50;7.60;;;2.00;;
22320;SDS011;11328;53.928;18.522;2023-07-13T11:55:21;7.88;;;2.13;;
22320;SDS011;11328;53.928;18.522;2023-07-13T11:57:53;9.32;;;2.55;;
22320;SDS011;11328;53.928;18.522;2023-07-13T12:00:28;6.15;;;1.75;;
22320;SDS011;11328;53.928;18.522;2023-07-13T12:03:00;8.13;;;2.13;;
22320;SDS011;11328;53.928;18.522;2023-07-13T12:05:31;9.05;;;2.28;;
22320;SDS011;11328;53.928;18.522;2023-07-13T12:07:59;8.00;;;2.13;;
22320;SDS011;11328;53.928;18.522;2023-07-13T12:10:55;6.32;;;1.90;;
22320;SDS011;11328;53.928;18.522;2023-07-13T12:13:35;7.72;;;2.10;;
22320;SDS011;11328;53.928;18.522;2023-07-13T12:16:12;5.03;;;1.92;;
22320;SDS011;11328;53.928;18.522;2023-07-13T12:18:51;6.45;;;2.20;;
22320;SDS011;11328;53.928;18.522;2023-07-13T12:21:20;6.00;;;1.90;;
22320;SDS011;11328;53.928;18.522;2023-07-13T12:23:57;7.35;;;2.10;;
22320;SDS011;11328;53.928;18.522;2023-07-13T12:26:25;12.43;;;2.40;;
22320;SDS011;11328;53.928;18.522;2023-07-13T12:28:53;7.28;;;2.00;;
22320;SDS011;11328;53.928;18.522;2023-07-13T12:31:24;7.63;;;2.20;;
22320;SDS011;11328;53.928;18.522;2023-07-13T12:34:23;7.32;;;2.28;;
22320;SDS011;11328;53.928;18.522;2023-07-13T12:45:02;6.07;;;1.83;;
22320;SDS011;11328;53.928;18.522;2023-07-13T12:47:44;6.40;;;1.80;;
22320;SDS011;11328;53.928;18.522;2023-07-13T12:50:20;5.90;;;1.63;;
22320;SDS011;11328;53.928;18.522;2023-07-13T12:52:55;8.82;;;2.25;;
22320;SDS011;11328;53.928;18.522;2023-07-13T12:55:40;7.93;;;1.80;;
22320;SDS011;11328;53.928;18.522;2023-07-13T13:00:54;6.15;;;2.00;;
22320;SDS011;11328;53.928;18.522;2023-07-13T13:03:35;8.18;;;2.00;;
22320;SDS011;11328;53.928;18.522;2023-07-13T13:08:41;8.43;;;1.92;;
22320;SDS011;11328;53.928;18.522;2023-07-13T13:11:10;12.15;;;1.98;;
22320;SDS011;11328;53.928;18.522;2023-07-13T13:13:37;7.18;;;2.10;;
22320;SDS011;11328;53.928;18.522;2023-07-13T13:16:09;8.23;;;1.95;;
22320;SDS011;11328;53.928;18.522;2023-07-13T13:18:43;7.03;;;1.90;;
22320;SDS011;11328;53.928;18.522;2023-07-13T13:21:11;7.07;;;1.90;;
22320;SDS011;11328;53.928;18.522;2023-07-13T13:23:38;7.50;;;2.00;;
22320;SDS011;11328;53.928;18.522;2023-07-13T13:26:08;6.72;;;1.90;;
22320;SDS011;11328;53.928;18.522;2023-07-13T13:28:43;11.05;;;1.95;;
22320;SDS011;11328;53.928;18.522;2023-07-13T13:31:11;8.77;;;1.80;;
22320;SDS011;11328;53.928;18.522;2023-07-13T13:33:40;51.42;;;3.88;;
22320;SDS011;11328;53.928;18.522;2023-07-13T13:36:21;9.95;;;2.35;;
22320;SDS011;11328;53.928;18.522;2023-07-13T13:38:50;8.07;;;2.10;;
22320;SDS011;11328;53.928;18.522;2023-07-13T13:41:17;7.60;;;1.80;;
22320;SDS011;11328;53.928;18.522;2023-07-13T13:43:44;9.45;;;2.33;;
22320;SDS011;11328;53.928;18.522;2023-07-13T13:46:20;12.63;;;2.20;;
22320;SDS011;11328;53.928;18.522;2023-07-13T13:48:51;9.10;;;1.77;;
22320;SDS011;11328;53.928;18.522;2023-07-13T13:51:19;5.28;;;1.50;;
22320;SDS011;11328;53.928;18.522;2023-07-13T13:53:49;8.98;;;1.73;;
22320;SDS011;11328;53.928;18.522;2023-07-13T13:56:17;4.75;;;1.60;;
22320;SDS011;11328;53.928;18.522;2023-07-13T13:58:46;7.57;;;1.67;;
22320;SDS011;11328;53.928;18.522;2023-07-13T14:01:16;8.43;;;2.20;;
22320;SDS011;11328;53.928;18.522;2023-07-13T14:03:49;5.53;;;1.58;;
22320;SDS011;11328;53.928;18.522;2023-07-13T14:06:20;8.05;;;1.65;;
22320;SDS011;11328;53.928;18.522;2023-07-13T14:08:47;8.05;;;2.15;;
22320;SDS011;11328;53.928;18.522;2023-07-13T14:11:15;7.70;;;1.70;;
22320;SDS011;11328;53.928;18.522;2023-07-13T14:13:56;10.35;;;2.00;;
22320;SDS011;11328;53.928;18.522;2023-07-13T14:16:27;6.93;;;1.50;;
22320;SDS011;11328;53.928;18.522;2023-07-13T14:18:58;6.45;;;1.70;;
22320;SDS011;11328;53.928;18.522;2023-07-13T14:21:27;4.68;;;1.67;;
22320;SDS011;11328;53.928;18.522;2023-07-13T14:23:56;4.18;;;1.42;;
22320;SDS011;11328;53.928;18.522;2023-07-13T14:26:23;4.22;;;1.25;;
22320;SDS011;11328;53.928;18.522;2023-07-13T14:28:54;9.50;;;1.83;;
22320;SDS011;11328;53.928;18.522;2023-07-13T14:31:25;5.13;;;1.55;;
22320;SDS011;11328;53.928;18.522;2023-07-13T14:33:56;3.88;;;1.40;;
22320;SDS011;11328;53.928;18.522;2023-07-13T14:36:31;5.93;;;1.35;;
22320;SDS011;11328;53.928;18.522;2023-07-13T14:39:36;5.35;;;1.67;;
22320;SDS011;11328;53.928;18.522;2023-07-13T14:41:57;6.55;;;1.60;;
22320;SDS011;11328;53.928;18.522;2023-07-13T14:44:26;7.10;;;1.88;;
22320;SDS011;11328;53.928;18.522;2023-07-13T14:46:57;5.95;;;1.55;;
22320;SDS011;11328;53.928;18.522;2023-07-13T14:49:35;5.75;;;1.35;;
22320;SDS011;11328;53.928;18.522;2023-07-13T14:52:19;4.47;;;1.40;;
22320;SDS011;11328;53.928;18.522;2023-07-13T14:54:53;8.63;;;1.92;;
22320;SDS011;11328;53.928;18.522;2023-07-13T14:57:21;4.10;;;1.40;;
22320;SDS011;11328;53.928;18.522;2023-07-13T14:59:48;14.23;;;1.70;;
22320;SDS011;11328;53.928;18.522;2023-07-13T15:02:21;5.65;;;1.83;;
22320;SDS011;11328;53.928;18.522;2023-07-13T15:04:56;7.05;;;1.70;;
22320;SDS011;11328;53.928;18.522;2023-07-13T15:07:24;6.40;;;1.50;;
22320;SDS011;11328;53.928;18.522;2023-07-13T15:09:52;8.05;;;1.60;;
22320;SDS011;11328;53.928;18.522;2023-07-13T15:12:19;4.22;;;1.40;;
22320;SDS011;11328;53.928;18.522;2023-07-13T15:14:47;4.45;;;1.17;;
22320;SDS011;11328;53.928;18.522;2023-07-13T15:17:26;6.03;;;1.42;;
22320;SDS011;11328;53.928;18.522;2023-07-13T15:20:12;12.48;;;1.70;;
22320;SDS011;11328;53.928;18.522;2023-07-13T15:22:44;6.18;;;1.50;;
22320;SDS011;11328;53.928;18.522;2023-07-13T15:25:22;5.03;;;1.60;;
22320;SDS011;11328;53.928;18.522;2023-07-13T15:27:53;5.10;;;1.50;;
22320;SDS011;11328;53.928;18.522;2023-07-13T15:30:28;9.75;;;2.10;;
22320;SDS011;11328;53.928;18.522;2023-07-13T15:35:54;11.68;;;2.10;;
22320;SDS011;11328;53.928;18.522;2023-07-13T15:38:27;19.23;;;2.45;;
22320;SDS011;11328;53.928;18.522;2023-07-13T15:43:28;4.25;;;1.50;;
22320;SDS011;11328;53.928;18.522;2023-07-13T15:46:00;10.48;;;1.77;;
22320;SDS011;11328;53.928;18.522;2023-07-13T15:48:27;6.78;;;1.92;;